Terminal Aerodrome Forecast
Issued by NWS Green Bay, WI

Home | Current Version | Previous Version | Graphics & Text | Print | Product List | Glossary On
Versions: 1 2 3 4 5 6 7 8 9 10 11 12 13 14 15 16 17 18 19 20 21 22 23 24 25 26 27 28 29 30 31 32 33 34 35 36 37 38 39
000
FTUS43 KGRB 011700
TAFGRB
TAF
KGRB 011720Z 0118/0218 12008KT P6SM SCT070 BKN120
     FM012000 16015G24KT P6SM SCT120
     FM020000 19013G20KT P6SM SCT040 BKN080 WS012/21045KT
      TEMPO 0209/0212 5SM -SHRA BR OVC040
     FM021200 21011KT 4SM SHRA BR BKN015 OVC040
      TEMPO 0212/0215 2SM RA BR OVC015
     FM021500 28009G15KT 5SM -SHRA BR OVC035=

USA.gov is the U.S. government's official web portal to all federal, state and local government web resources and services.